Theologos P . — SZNB — position and weather

sailwx.info

Track history (hours):
 
Tides and Currents Weather Stations Pressure Air Temp Water Temp Dewpoint Dewpoint Depression Visibility Wind Speed Wind Dir Waves Ship Positions

Theologos P .

Last reported at 2015-Aug-01 13:33 UTC. Time now 2015-Aug-01 13:51 UTC.
Position N 37°56' E 024°23'.

Length 118 m; draft 4.5 m.

Type: Passenger vessel. MMSI: 240521000.

Date/timePositionNaut miles runAvg speedWind from/ knotsBaromVisibWave heightAir tempDewpointWater temp
2015-Aug-01 13:33N 37°56' E 024°23'3113.7
2015-Aug-01 11:18N 37°40' E 024°56'1316.7
2015-Aug-01 10:32N 37°32' E 025°09'9 9.1
2015-Aug-01 09:33N 37°28' E 025°19'9 9.2
2015-Aug-01 08:33N 37°32' E 025°09'4713.6
2015-Aug-01 05:04N 37°57' E 024°18'918.0
2015-Aug-01 04:33N 37°60' E 024°07'5 1.3
2015-Aug-01 00:34N 38°01' E 024°01'1817.9
2015-Jul-31 23:32N 37°54' E 024°22'3617.9
2015-Jul-31 21:32N 37°35' E 025°01'1715.7
2015-Jul-31 20:29N 37°28' E 025°19'7 7.1
2015-Jul-31 19:32N 37°31' E 025°12'1010.7
2015-Jul-31 18:33N 37°37' E 025°01'4414.2
2015-Jul-31 15:27N 37°58' E 024°12'10 4.7
2015-Jul-31 13:22N 38°01' E 024°01'1417.2
2015-Jul-31 12:33N 37°56' E 024°17'3918.3
2015-Jul-31 10:25N 37°36' E 024°59'1618.5
2015-Jul-31 09:33N 37°28' E 025°17'4 3.9
2015-Jul-31 08:32N 37°30' E 025°13'5814.5
2015-Jul-31 04:32N 37°59' E 024°09'5 1.3
2015-Jul-31 00:33N 38°01' E 024°03'1818.5
2015-Jul-30 23:33N 37°53' E 024°24'3618.2
2015-Jul-30 21:33N 37°34' E 025°03'1514.6
2015-Jul-30 20:33N 37°28' E 025°19'2 1.8
2015-Jul-30 19:33N 37°28' E 025°17'1211.6
2015-Jul-30 18:33N 37°34' E 025°05'4214.0
2015-Jul-30 15:31N 37°57' E 024°19'15 2.5
2015-Jul-30 09:27N 38°01' E 024°01'1617.1
2015-Jul-30 08:32N 37°57' E 024°20'2713.6
2015-Jul-30 06:32N 37°45' E 024°51'1818.4
2015-Jul-30 05:34N 37°33' E 025°07'1111.0
2015-Jul-30 04:33N 37°28' E 025°20'0 0.0
2015-Jul-30 03:33N 37°28' E 025°20'0 0.0
2015-Jul-30 02:33N 37°28' E 025°20'0 0.0
2015-Jul-30 01:33N 37°28' E 025°20'0 0.0
2015-Jul-30 00:33N 37°28' E 025°20'0 0.0
2015-Jul-29 23:34N 37°28' E 025°20'0 0.0
2015-Jul-29 22:33N 37°28' E 025°20'0 0.0
2015-Jul-29 21:33N 37°28' E 025°20'0 0.0
2015-Jul-29 20:33N 37°28' E 025°20'5 4.9
2015-Jul-29 19:33N 37°30' E 025°14'1111.3
2015-Jul-29 18:33N 37°36' E 025°02'4213.9
2015-Jul-29 15:32N 37°57' E 024°16'13 2.1
2015-Jul-29 09:28N 38°01' E 024°01'1516.7
2015-Jul-29 08:33N 37°56' E 024°19'2713.4
2015-Jul-29 06:31N 37°45' E 024°50'1818.4
2015-Jul-29 05:33N 37°33' E 025°07'1111.2
2015-Jul-29 04:33N 37°28' E 025°20'0 0.0
2015-Jul-29 03:32N 37°28' E 025°20'0 0.0
2015-Jul-29 02:33N 37°28' E 025°20'0 0.0
2015-Jul-29 01:33N 37°28' E 025°20'0 0.0
2015-Jul-29 00:33N 37°28' E 025°20'0 0.0
2015-Jul-28 23:33N 37°28' E 025°20'0 0.0
2015-Jul-28 22:33N 37°28' E 025°20'0 0.0
2015-Jul-28 21:34N 37°28' E 025°20'0 0.0
2015-Jul-28 20:33N 37°28' E 025°20'0 0.1
2015-Jul-28 19:33N 37°28' E 025°20'1010.2
2015-Jul-28 18:33N 37°32' E 025°08'1818.0
2015-Jul-28 17:33N 37°45' E 024°52'2913.5
2015-Jul-28 15:25N 37°57' E 024°18'15 2.4
2015-Jul-28 09:24N 38°01' E 024°01'1517.7
2015-Jul-28 08:33N 37°57' E 024°19'2813.8
2015-Jul-28 06:32N 37°45' E 024°51'1818.3
2015-Jul-28 05:33N 37°33' E 025°07'1111.0
2015-Jul-28 04:34N 37°28' E 025°20'0 0.0
2015-Jul-28 03:34N 37°28' E 025°20'0 0.0
2015-Jul-28 02:34N 37°28' E 025°20'0 0.0
2015-Jul-28 01:34N 37°28' E 025°20'0 0.0
2015-Jul-28 00:34N 37°28' E 025°20'0 0.0
2015-Jul-27 23:33N 37°28' E 025°20'0 0.0
2015-Jul-27 22:34N 37°28' E 025°20'0 0.0
2015-Jul-27 21:34N 37°28' E 025°20'0 0.0
2015-Jul-27 20:34N 37°28' E 025°20'0 0.0
2015-Jul-27 19:34N 37°28' E 025°20'1010.1
2015-Jul-27 18:33N 37°32' E 025°08'1818.2
2015-Jul-27 17:33N 37°45' E 024°51'3514.1
2015-Jul-27 15:03N 37°59' E 024°11'4 0.7
2015-Jul-27 09:34N 38°00' E 024°06'2218.2
2015-Jul-27 08:21N 37°54' E 024°33'16 9.1
2015-Jul-27 06:33N 37°45' E 024°51'1818.1
2015-Jul-27 05:33N 37°33' E 025°07'1111.0
2015-Jul-27 04:33N 37°28' E 025°20'0 0.0
2015-Jul-27 03:33N 37°28' E 025°20'0 0.0
2015-Jul-27 02:33N 37°28' E 025°20'0 0.0
2015-Jul-27 01:33N 37°28' E 025°20'0 0.0
2015-Jul-27 00:33N 37°28' E 025°20'9 9.3
2015-Jul-26 23:34N 37°32' E 025°09'1414.2
2015-Jul-26 22:33N 37°39' E 024°54'3718.6
2015-Jul-26 20:33N 37°57' E 024°12'10 9.3
2015-Jul-26 19:29N 38°01' E 024°01'1616.8
2015-Jul-26 18:31N 37°56' E 024°20'3 0.8
2015-Jul-26 15:28N 37°57' E 024°17'1411.8
2015-Jul-26 14:18N 38°01' E 024°01'1316.8
2015-Jul-26 13:32N 37°57' E 024°16'3013.8
2015-Jul-26 11:22N 37°44' E 024°50'1517.8
2015-Jul-26 10:33N 37°34' E 025°04'8 8.2
2015-Jul-26 09:33N 37°30' E 025°12'6 6.2
2015-Jul-26 08:33N 37°28' E 025°20'0 0.0
2015-Jul-26 07:33N 37°28' E 025°20'0 0.0
2015-Jul-26 06:33N 37°28' E 025°20'0 0.0
2015-Jul-26 05:33N 37°28' E 025°20'0 0.0
2015-Jul-26 04:33N 37°28' E 025°20'0 0.0
2015-Jul-26 03:33N 37°28' E 025°20'0 0.0
2015-Jul-26 02:33N 37°28' E 025°20'0 0.0
2015-Jul-26 01:33N 37°28' E 025°20'0 0.0
2015-Jul-26 00:33N 37°28' E 025°20'0 0.0
2015-Jul-25 23:33N 37°28' E 025°20'0 0.0
2015-Jul-25 22:33N 37°28' E 025°20'0 0.0
2015-Jul-25 21:33N 37°28' E 025°20'0 0.0
2015-Jul-25 20:33N 37°28' E 025°20'5 5.2
2015-Jul-25 19:33N 37°30' E 025°14'1313.1
2015-Jul-25 18:33N 37°37' E 024°60'4615.3
2015-Jul-25 15:31N 37°60' E 024°08'6 4.6
2015-Jul-25 14:09N 38°01' E 024°01'1017.1
2015-Jul-25 13:33N 37°58' E 024°13'3214.3
2015-Jul-25 11:17N 37°45' E 024°50'1318.5
2015-Jul-25 10:33N 37°35' E 025°03'1312.9
2015-Jul-25 09:34N 37°29' E 025°16'5 4.5
2015-Jul-25 08:34N 37°31' E 025°11'1312.5
2015-Jul-25 07:33N 37°38' E 024°59'4414.7
2015-Jul-25 04:33N 37°59' E 024°10'7 1.8
2015-Jul-25 00:30N 38°01' E 024°01'1917.6
2015-Jul-24 23:27N 37°54' E 024°23'2418.1
2015-Jul-24 22:08N 37°42' E 024°48'1017.5
2015-Jul-24 21:33N 37°36' E 024°59'1817.7
2015-Jul-24 20:34N 37°28' E 025°19'4 4.2
2015-Jul-24 19:33N 37°30' E 025°14'1111.1
2015-Jul-24 18:33N 37°36' E 025°02'4514.0
2015-Jul-24 15:20N 37°59' E 024°13'10 5.0
2015-Jul-24 13:24N 38°01' E 024°01'1416.5
2015-Jul-24 12:34N 37°57' E 024°17'3618.2
2015-Jul-24 10:34N 37°38' E 024°57'1817.6
2015-Jul-24 09:34N 37°29' E 025°16'2 2.3
2015-Jul-24 08:33N 37°30' E 025°13'1212.3
2015-Jul-24 07:33N 37°37' E 025°01'4615.4
2015-Jul-24 04:32N 37°59' E 024°09'7 1.7
2015-Jul-24 00:24N 38°01' E 024°01'1517.3
2015-Jul-23 23:32N 37°56' E 024°19'3618.2
2015-Jul-23 21:33N 37°38' E 024°58'1817.8
2015-Jul-23 20:33N 37°28' E 025°17'1 0.7
2015-Jul-23 19:34N 37°29' E 025°16'1110.6
2015-Jul-23 18:34N 37°34' E 025°05'4614.3
2015-Jul-23 15:20N 37°58' E 024°14'8 1.4
2015-Jul-23 09:33N 38°01' E 024°05'2218.5
2015-Jul-23 08:22N 37°54' E 024°31'1910.7
2015-Jul-23 06:33N 37°44' E 024°52'1717.3
2015-Jul-23 05:34N 37°32' E 025°08'10 9.9
2015-Jul-23 04:33N 37°28' E 025°20'0 0.0
2015-Jul-23 03:33N 37°28' E 025°20'0 0.0
2015-Jul-23 02:33N 37°28' E 025°20'0 0.0
2015-Jul-23 01:33N 37°28' E 025°20'0 0.0
2015-Jul-23 00:33N 37°28' E 025°20'0 0.0
2015-Jul-22 23:33N 37°28' E 025°20'0 0.0
2015-Jul-22 22:33N 37°28' E 025°20'0 0.0
2015-Jul-22 21:33N 37°28' E 025°20'0 0.0
2015-Jul-22 20:33N 37°28' E 025°20'3 2.9
2015-Jul-22 19:33N 37°29' E 025°16'1111.1
2015-Jul-22 18:33N 37°34' E 025°04'4714.1
2015-Jul-22 15:14N 37°58' E 024°13'  
Track history (hours):
 
Tides and Currents Weather Stations Pressure Air Temp Water Temp Dewpoint Dewpoint Depression Visibility Wind Speed Wind Dir Waves Ship Positions

Theologos P .

Last reported at 2015-Aug-01 13:33 UTC. Time now 2015-Aug-01 13:51 UTC.
Position N 37°56' E 024°23'.

Length 118 m; draft 4.5 m.

Type: Passenger vessel. MMSI: 240521000.

Date/timePositionNaut miles runAvg speedWind from/ knotsBaromVisibWave heightAir tempDewpointWater temp
2015-Aug-01 13:33N 37°56' E 024°23'3113.7
2015-Aug-01 11:18N 37°40' E 024°56'1316.7
2015-Aug-01 10:32N 37°32' E 025°09'9 9.1
2015-Aug-01 09:33N 37°28' E 025°19'9 9.2
2015-Aug-01 08:33N 37°32' E 025°09'4713.6
2015-Aug-01 05:04N 37°57' E 024°18'918.0
2015-Aug-01 04:33N 37°60' E 024°07'5 1.3
2015-Aug-01 00:34N 38°01' E 024°01'1817.9
2015-Jul-31 23:32N 37°54' E 024°22'3617.9
2015-Jul-31 21:32N 37°35' E 025°01'1715.7
2015-Jul-31 20:29N 37°28' E 025°19'7 7.1
2015-Jul-31 19:32N 37°31' E 025°12'1010.7
2015-Jul-31 18:33N 37°37' E 025°01'4414.2
2015-Jul-31 15:27N 37°58' E 024°12'10 4.7
2015-Jul-31 13:22N 38°01' E 024°01'1417.2
2015-Jul-31 12:33N 37°56' E 024°17'3918.3
2015-Jul-31 10:25N 37°36' E 024°59'1618.5
2015-Jul-31 09:33N 37°28' E 025°17'4 3.9
2015-Jul-31 08:32N 37°30' E 025°13'5814.5
2015-Jul-31 04:32N 37°59' E 024°09'5 1.3
2015-Jul-31 00:33N 38°01' E 024°03'1818.5
2015-Jul-30 23:33N 37°53' E 024°24'3618.2
2015-Jul-30 21:33N 37°34' E 025°03'1514.6
2015-Jul-30 20:33N 37°28' E 025°19'2 1.8
2015-Jul-30 19:33N 37°28' E 025°17'1211.6
2015-Jul-30 18:33N 37°34' E 025°05'4214.0
2015-Jul-30 15:31N 37°57' E 024°19'15 2.5
2015-Jul-30 09:27N 38°01' E 024°01'1617.1
2015-Jul-30 08:32N 37°57' E 024°20'2713.6
2015-Jul-30 06:32N 37°45' E 024°51'1818.4
2015-Jul-30 05:34N 37°33' E 025°07'1111.0
2015-Jul-30 04:33N 37°28' E 025°20'0 0.0
2015-Jul-30 03:33N 37°28' E 025°20'0 0.0
2015-Jul-30 02:33N 37°28' E 025°20'0 0.0
2015-Jul-30 01:33N 37°28' E 025°20'0 0.0
2015-Jul-30 00:33N 37°28' E 025°20'0 0.0
2015-Jul-29 23:34N 37°28' E 025°20'0 0.0
2015-Jul-29 22:33N 37°28' E 025°20'0 0.0
2015-Jul-29 21:33N 37°28' E 025°20'0 0.0
2015-Jul-29 20:33N 37°28' E 025°20'5 4.9
2015-Jul-29 19:33N 37°30' E 025°14'1111.3
2015-Jul-29 18:33N 37°36' E 025°02'4213.9
2015-Jul-29 15:32N 37°57' E 024°16'13 2.1
2015-Jul-29 09:28N 38°01' E 024°01'1516.7
2015-Jul-29 08:33N 37°56' E 024°19'2713.4
2015-Jul-29 06:31N 37°45' E 024°50'1818.4
2015-Jul-29 05:33N 37°33' E 025°07'1111.2
2015-Jul-29 04:33N 37°28' E 025°20'0 0.0
2015-Jul-29 03:32N 37°28' E 025°20'0 0.0
2015-Jul-29 02:33N 37°28' E 025°20'0 0.0
2015-Jul-29 01:33N 37°28' E 025°20'0 0.0
2015-Jul-29 00:33N 37°28' E 025°20'0 0.0
2015-Jul-28 23:33N 37°28' E 025°20'0 0.0
2015-Jul-28 22:33N 37°28' E 025°20'0 0.0
2015-Jul-28 21:34N 37°28' E 025°20'0 0.0
2015-Jul-28 20:33N 37°28' E 025°20'0 0.1
2015-Jul-28 19:33N 37°28' E 025°20'1010.2
2015-Jul-28 18:33N 37°32' E 025°08'1818.0
2015-Jul-28 17:33N 37°45' E 024°52'2913.5
2015-Jul-28 15:25N 37°57' E 024°18'15 2.4
2015-Jul-28 09:24N 38°01' E 024°01'1517.7
2015-Jul-28 08:33N 37°57' E 024°19'2813.8
2015-Jul-28 06:32N 37°45' E 024°51'1818.3
2015-Jul-28 05:33N 37°33' E 025°07'1111.0
2015-Jul-28 04:34N 37°28' E 025°20'0 0.0
2015-Jul-28 03:34N 37°28' E 025°20'0 0.0
2015-Jul-28 02:34N 37°28' E 025°20'0 0.0
2015-Jul-28 01:34N 37°28' E 025°20'0 0.0
2015-Jul-28 00:34N 37°28' E 025°20'0 0.0
2015-Jul-27 23:33N 37°28' E 025°20'0 0.0
2015-Jul-27 22:34N 37°28' E 025°20'0 0.0
2015-Jul-27 21:34N 37°28' E 025°20'0 0.0
2015-Jul-27 20:34N 37°28' E 025°20'0 0.0
2015-Jul-27 19:34N 37°28' E 025°20'1010.1
2015-Jul-27 18:33N 37°32' E 025°08'1818.2
2015-Jul-27 17:33N 37°45' E 024°51'3514.1
2015-Jul-27 15:03N 37°59' E 024°11'4 0.7
2015-Jul-27 09:34N 38°00' E 024°06'2218.2
2015-Jul-27 08:21N 37°54' E 024°33'16 9.1
2015-Jul-27 06:33N 37°45' E 024°51'1818.1
2015-Jul-27 05:33N 37°33' E 025°07'1111.0
2015-Jul-27 04:33N 37°28' E 025°20'0 0.0
2015-Jul-27 03:33N 37°28' E 025°20'0 0.0
2015-Jul-27 02:33N 37°28' E 025°20'0 0.0
2015-Jul-27 01:33N 37°28' E 025°20'0 0.0
2015-Jul-27 00:33N 37°28' E 025°20'9 9.3
2015-Jul-26 23:34N 37°32' E 025°09'1414.2
2015-Jul-26 22:33N 37°39' E 024°54'3718.6
2015-Jul-26 20:33N 37°57' E 024°12'10 9.3
2015-Jul-26 19:29N 38°01' E 024°01'1616.8
2015-Jul-26 18:31N 37°56' E 024°20'3 0.8
2015-Jul-26 15:28N 37°57' E 024°17'1411.8
2015-Jul-26 14:18N 38°01' E 024°01'1316.8
2015-Jul-26 13:32N 37°57' E 024°16'3013.8
2015-Jul-26 11:22N 37°44' E 024°50'1517.8
2015-Jul-26 10:33N 37°34' E 025°04'8 8.2
2015-Jul-26 09:33N 37°30' E 025°12'6 6.2
2015-Jul-26 08:33N 37°28' E 025°20'0 0.0
2015-Jul-26 07:33N 37°28' E 025°20'0 0.0
2015-Jul-26 06:33N 37°28' E 025°20'0 0.0
2015-Jul-26 05:33N 37°28' E 025°20'0 0.0
2015-Jul-26 04:33N 37°28' E 025°20'0 0.0
2015-Jul-26 03:33N 37°28' E 025°20'0 0.0
2015-Jul-26 02:33N 37°28' E 025°20'0 0.0
2015-Jul-26 01:33N 37°28' E 025°20'0 0.0
2015-Jul-26 00:33N 37°28' E 025°20'0 0.0
2015-Jul-25 23:33N 37°28' E 025°20'0 0.0
2015-Jul-25 22:33N 37°28' E 025°20'0 0.0
2015-Jul-25 21:33N 37°28' E 025°20'0 0.0
2015-Jul-25 20:33N 37°28' E 025°20'5 5.2
2015-Jul-25 19:33N 37°30' E 025°14'1313.1
2015-Jul-25 18:33N 37°37' E 024°60'4615.3
2015-Jul-25 15:31N 37°60' E 024°08'6 4.6
2015-Jul-25 14:09N 38°01' E 024°01'1017.1
2015-Jul-25 13:33N 37°58' E 024°13'3214.3
2015-Jul-25 11:17N 37°45' E 024°50'1318.5
2015-Jul-25 10:33N 37°35' E 025°03'1312.9
2015-Jul-25 09:34N 37°29' E 025°16'5 4.5
2015-Jul-25 08:34N 37°31' E 025°11'1312.5
2015-Jul-25 07:33N 37°38' E 024°59'4414.7
2015-Jul-25 04:33N 37°59' E 024°10'7 1.8
2015-Jul-25 00:30N 38°01' E 024°01'1917.6
2015-Jul-24 23:27N 37°54' E 024°23'2418.1
2015-Jul-24 22:08N 37°42' E 024°48'1017.5
2015-Jul-24 21:33N 37°36' E 024°59'1817.7
2015-Jul-24 20:34N 37°28' E 025°19'4 4.2
2015-Jul-24 19:33N 37°30' E 025°14'1111.1
2015-Jul-24 18:33N 37°36' E 025°02'4514.0
2015-Jul-24 15:20N 37°59' E 024°13'10 5.0
2015-Jul-24 13:24N 38°01' E 024°01'1416.5
2015-Jul-24 12:34N 37°57' E 024°17'3618.2
2015-Jul-24 10:34N 37°38' E 024°57'1817.6
2015-Jul-24 09:34N 37°29' E 025°16'2 2.3
2015-Jul-24 08:33N 37°30' E 025°13'1212.3
2015-Jul-24 07:33N 37°37' E 025°01'4615.4
2015-Jul-24 04:32N 37°59' E 024°09'7 1.7
2015-Jul-24 00:24N 38°01' E 024°01'1517.3
2015-Jul-23 23:32N 37°56' E 024°19'3618.2
2015-Jul-23 21:33N 37°38' E 024°58'1817.8
2015-Jul-23 20:33N 37°28' E 025°17'1 0.7
2015-Jul-23 19:34N 37°29' E 025°16'1110.6
2015-Jul-23 18:34N 37°34' E 025°05'4614.3
2015-Jul-23 15:20N 37°58' E 024°14'8 1.4
2015-Jul-23 09:33N 38°01' E 024°05'2218.5
2015-Jul-23 08:22N 37°54' E 024°31'1910.7
2015-Jul-23 06:33N 37°44' E 024°52'1717.3
2015-Jul-23 05:34N 37°32' E 025°08'10 9.9
2015-Jul-23 04:33N 37°28' E 025°20'0 0.0
2015-Jul-23 03:33N 37°28' E 025°20'0 0.0
2015-Jul-23 02:33N 37°28' E 025°20'0 0.0
2015-Jul-23 01:33N 37°28' E 025°20'0 0.0
2015-Jul-23 00:33N 37°28' E 025°20'0 0.0
2015-Jul-22 23:33N 37°28' E 025°20'0 0.0
2015-Jul-22 22:33N 37°28' E 025°20'0 0.0
2015-Jul-22 21:33N 37°28' E 025°20'0 0.0
2015-Jul-22 20:33N 37°28' E 025°20'3 2.9
2015-Jul-22 19:33N 37°29' E 025°16'1111.1
2015-Jul-22 18:33N 37°34' E 025°04'4714.1
2015-Jul-22 15:14N 37°58' E 024°13'  

Dump ship's entire track history